Akarca, Turkey

1:29 PM +03 on June 21, 2018 (GMT +0300)
Balikesir Air Base | | Change Station

Elev 335 ft 39.62 °N, 27.92 °E | Updated 39 minutes ago

Thunderstorm
Thunderstorm
79 °F
Feels Like 79 °F
N
5
Wind Variable Wind from NE

Today
High -- | Low -- °F
--% Chance of Precip.
Yesterday
High -- | Low -- °F
Precip. -- in
Pressure 29.95 in
Visibility 6.2 miles
Clouds Scattered Clouds 3500 ft
Mostly Cloudy 10000 ft
Dew Point 68 °F
Humidity 69%
Rainfall 0.00 in
Snow Depth Not available.
5:37 AM 8:38 PM
First Quarter, 61% visible
METAR LTBF 210950Z 04004KT 360V090 9999 SCT035 BKN100 26/20 Q1014 NOSIG RMK RWY18 05004KT 350V110
Pressure 29.95 in
Visibility 6.2 miles
Clouds Scattered Clouds 3500 ft
Mostly Cloudy 10000 ft
Dew Point 68 °F
Humidity 69%
Rainfall 0.00 in
Snow Depth Not available.
5:37 AM 8:38 PM
First Quarter, 61% visible
METAR LTBF 210950Z 04004KT 360V090 9999 SCT035 BKN100 26/20 Q1014 NOSIG RMK RWY18 05004KT 350V110

Get Severe Weather Alerts

Thanks for signing up!

Be on the lookout for a verification email in your inbox.

You'll start receiving the daily forecast at 6 AM.

×

10-Day Weather Forecast

×

Almanac

Astronomy

Jun. 21, 2018 Rise Set
Actual Time
Civil Twilight
Nautical Twilight
Astronomical Twilight
Moon
Length of Visible Light
Length of Day
Tomorrow will be .
, % of the Moon is Illuminated

Today's Extremes

Country Highs Country Lows

Community

WunderPhotos

Category 6

Welcome to Category 6. This is the collective home for Weather Underground's featured writeups by Dr. Jeff Masters (right), Bob Henson (left), Chris Burt, and other regular contributors.

Nearby

Air Quality

  Air Quality AQ Index Pollutant
Not available.

Snow Depth

Station Depth Elevation

Earthquake Activity

City Distance Mag. Time & Date
Minimum magnitude displayed is 2.5.

Coastal Water Temperatures

Place Temperature

Stations

Nearby Weather Stations

Station Location Temp. Windchill Dew Point Humidity Wind Precip. Elev Updated Type